Time;durP1;ratioP1;P1;durP2;ratioP2;P2;SDS_P1;SDS_P2;PMS_P1;PMS_P2;Temp;Humidity;BMP_temperature;BMP_pressure;BME280_temperature;BME280_humidity;BME280_pressure;Samples;Min_cycle;Max_cycle;Signal;HPM_P1;HPM_P2
2022/11/10 00:01:09;;;;;;;13.88;5.32;;;9.70;99.90;;;9.19;100.00;97771.13;4956594;28;20078;-72
2022/11/10 00:03:39;;;;;;;13.13;5.90;;;9.70;99.90;;;9.03;100.00;97764.75;4953855;28;20591;-73
2022/11/10 00:06:08;;;;;;;17.20;6.03;;;9.60;99.90;;;9.09;100.00;97764.56;4955047;28;20070;-72
2022/11/10 00:08:35;;;;;;;21.60;6.75;;;9.60;99.90;;;8.98;100.00;97783.03;4954189;28;20059;-72
2022/11/10 00:11:06;;;;;;;14.98;6.15;;;9.50;99.90;;;8.96;100.00;97776.22;4954010;28;20047;-73
2022/11/10 00:19:08;;;;;;;24.23;8.15;;;9.50;99.90;;;8.95;100.00;97787.47;4963065;28;20408;-70
2022/11/10 00:21:36;;;;;;;11.23;6.28;;;9.50;99.90;;;8.92;100.00;97790.19;4952930;28;20057;-71
2022/11/10 00:24:03;;;;;;;18.98;6.43;;;9.40;99.90;;;8.90;100.00;97797.16;4950580;28;20152;-71
2022/11/10 00:26:30;;;;;;;15.27;7.43;;;9.40;99.90;;;8.89;100.00;97804.03;4945294;28;20485;-71
2022/11/10 00:28:57;;;;;;;15.18;6.63;;;9.30;99.90;;;8.88;100.00;97804.97;4955591;28;20062;-70
2022/11/10 00:31:27;;;;;;;18.90;7.45;;;9.30;99.90;;;8.87;100.00;97810.16;4955010;28;20055;-69
2022/11/10 00:33:54;;;;;;;18.90;8.63;;;9.30;99.90;;;8.79;100.00;97808.69;4954041;28;20065;-70
2022/11/10 00:36:21;;;;;;;15.05;7.22;;;9.30;99.90;;;8.81;100.00;97810.38;4953504;28;20746;-72
2022/11/10 00:38:52;;;;;;;19.55;8.05;;;9.30;99.90;;;8.72;100.00;97809.78;4956716;28;20342;-71
2022/11/10 00:41:19;;;;;;;20.67;8.98;;;9.20;99.90;;;8.68;100.00;97828.03;4954336;28;20049;-71
2022/11/10 00:43:47;;;;;;;21.63;8.48;;;9.20;99.90;;;8.75;100.00;97819.19;4956509;28;20248;-71
2022/11/10 00:46:14;;;;;;;16.52;7.72;;;9.20;99.90;;;8.74;100.00;97833.88;4955052;28;20050;-71
2022/11/10 00:48:41;;;;;;;14.00;6.45;;;9.20;99.90;;;8.74;100.00;97831.28;4952261;28;20051;-72
2022/11/10 00:51:23;;;;;;;20.50;8.73;;;9.30;99.90;;;8.74;100.00;97846.81;4956859;28;20055;-70
2022/11/10 00:53:51;;;;;;;23.58;8.40;;;9.30;99.90;;;8.69;100.00;97842.66;4956456;28;20142;-71
2022/11/10 00:56:19;;;;;;;19.10;7.63;;;9.30;99.90;;;8.69;100.00;97847.81;4973600;28;20063;-69
2022/11/10 00:58:46;;;;;;;16.67;7.43;;;9.30;99.90;;;8.77;100.00;97845.84;4963443;28;20070;-71
2022/11/10 01:01:15;;;;;;;22.35;8.73;;;9.40;99.90;;;8.82;100.00;97846.56;4956864;28;20070;-71
2022/11/10 01:03:42;;;;;;;23.88;10.35;;;9.40;99.90;;;8.78;100.00;97856.19;4954603;28;20051;-71
2022/11/10 01:06:12;;;;;;;20.20;8.77;;;9.50;99.90;;;8.84;100.00;97857.72;4955939;28;20054;-71
2022/11/10 01:08:40;;;;;;;20.67;10.77;;;9.50;99.90;;;8.86;100.00;97855.09;4954910;28;20066;-71
2022/11/10 01:11:18;;;;;;;25.35;11.43;;;9.50;99.90;;;8.88;100.00;97861.91;4953726;28;20051;-71
2022/11/10 01:13:46;;;;;;;23.42;9.38;;;9.50;99.90;;;8.90;100.00;97862.72;4954937;28;20055;-69
2022/11/10 01:16:21;;;;;;;20.52;9.55;;;9.60;99.90;;;8.88;100.00;97864.50;4965941;28;20124;-71
2022/11/10 01:18:55;;;;;;;23.27;10.45;;;9.60;99.90;;;8.91;100.00;97866.13;4964837;28;20058;-71
2022/11/10 01:21:24;;;;;;;19.05;8.35;;;9.50;99.90;;;8.79;100.00;97875.13;4951382;28;20065;-70
2022/11/10 01:23:51;;;;;;;18.55;9.73;;;9.50;99.90;;;8.85;100.00;97874.94;4960186;28;20051;-71
2022/11/10 01:26:18;;;;;;;22.23;9.75;;;9.50;99.90;;;8.89;100.00;97875.69;4963952;28;20544;-71
2022/11/10 01:28:46;;;;;;;23.08;10.07;;;9.50;99.90;;;8.90;100.00;97880.00;4965917;28;20070;-71
2022/11/10 01:31:18;;;;;;;24.90;10.27;;;9.50;99.90;;;8.94;100.00;97886.75;4962906;28;20043;-71
2022/11/10 01:33:45;;;;;;;20.15;8.45;;;9.50;99.90;;;8.95;100.00;97875.50;4962453;28;20122;-70
2022/11/10 01:36:12;;;;;;;21.00;9.32;;;9.50;99.90;;;8.92;100.00;97883.38;4962711;28;20054;-71
2022/11/10 01:38:41;;;;;;;27.08;10.27;;;9.50;99.90;;;8.78;100.00;97888.94;4977524;28;20113;-71
2022/11/10 01:41:12;;;;;;;25.27;8.50;;;9.50;99.90;;;8.85;100.00;97890.47;4978806;28;20058;-71
2022/11/10 01:43:39;;;;;;;30.65;10.23;;;9.40;99.90;;;8.75;100.00;97889.06;4979482;28;20101;-71
2022/11/10 01:46:08;;;;;;;17.48;8.82;;;9.40;99.90;;;8.73;100.00;97894.25;4961784;28;20054;-71
2022/11/10 01:48:52;;;;;;;17.00;8.32;;;9.30;99.90;;;8.67;100.00;97898.81;4962061;28;20054;-70
2022/11/10 01:51:33;;;;;;;20.17;9.07;;;9.30;99.90;;;8.69;100.00;97899.59;4975010;28;20046;-71
2022/11/10 01:54:05;;;;;;;26.17;10.80;;;9.30;99.90;;;8.68;100.00;97903.06;4959687;28;20058;-72
2022/11/10 01:56:38;;;;;;;18.75;9.00;;;9.20;99.90;;;8.58;100.00;97903.34;4977361;28;20062;-72
2022/11/10 01:59:09;;;;;;;;;;;9.20;99.90;;;8.50;100.00;97904.47;4976033;28;20065;-71
2022/11/10 02:01:36;;;;;;;23.80;10.95;;;9.20;99.90;;;8.49;100.00;97908.78;4958786;28;19937;-72
2022/11/10 02:04:08;;;;;;;30.95;10.52;;;9.20;99.90;;;8.54;100.00;97896.56;4962383;28;20054;-73
2022/11/10 02:06:42;;;;;;;21.83;9.10;;;9.30;99.90;;;8.57;100.00;97899.06;4965835;28;20051;-71
2022/11/10 02:09:09;;;;;;;25.45;9.90;;;9.20;99.90;;;8.64;100.00;97904.06;4974667;28;20104;-71
2022/11/10 02:11:39;;;;;;;20.00;10.25;;;9.20;99.90;;;8.59;100.00;97901.59;4977565;28;20047;-71
2022/11/10 02:14:06;;;;;;;21.45;9.45;;;9.30;99.90;;;8.58;100.00;97902.50;4975107;28;20050;-70
2022/11/10 02:16:34;;;;;;;23.73;10.55;;;9.30;99.90;;;8.56;100.00;97905.13;4976151;28;20595;-70
2022/11/10 02:19:39;;;;;;;19.63;9.88;;;9.20;99.90;;;8.53;100.00;97905.22;4963806;28;20066;-71
2022/11/10 02:22:05;;;;;;;24.90;10.07;;;9.30;99.90;;;8.51;100.00;97901.00;4958045;28;20058;-70
2022/11/10 02:24:32;;;;;;;22.77;10.65;;;9.20;99.90;;;8.43;100.00;97908.97;4966130;28;20051;-71
2022/11/10 02:26:59;;;;;;;23.38;10.25;;;9.30;99.90;;;8.42;100.00;97903.84;4963552;28;20085;-72
2022/11/10 02:29:26;;;;;;;22.52;10.75;;;9.20;99.90;;;8.39;100.00;97907.31;4961750;28;20042;-71
2022/11/10 02:31:53;;;;;;;19.60;9.15;;;9.10;99.90;;;8.33;100.00;97903.19;4968386;28;20054;-72
2022/11/10 02:34:20;;;;;;;23.25;10.05;;;9.10;99.90;;;8.38;100.00;97908.22;4977606;28;20480;-72
2022/11/10 02:36:47;;;;;;;24.45;9.68;;;9.10;99.90;;;8.32;100.00;97908.38;4966354;28;20051;-72
2022/11/10 02:39:13;;;;;;;27.70;10.48;;;9.00;99.90;;;8.35;100.00;97913.50;4964667;28;20055;-71
2022/11/10 02:41:40;;;;;;;23.77;10.48;;;9.00;99.90;;;8.34;100.00;97912.63;4964424;28;20118;-71
2022/11/10 02:44:07;;;;;;;26.70;12.43;;;9.00;99.90;;;8.26;100.00;97917.19;4963375;28;20122;-71
2022/11/10 02:46:36;;;;;;;20.65;10.02;;;9.00;99.90;;;8.27;100.00;97908.50;4967320;28;20058;-71
2022/11/10 02:49:03;;;;;;;22.15;9.75;;;9.00;99.90;;;8.29;100.00;97908.47;4954124;28;20047;-70
2022/11/10 02:51:30;;;;;;;30.60;11.05;;;9.00;99.90;;;8.25;100.00;97907.69;4952383;28;20897;-70
2022/11/10 02:53:57;;;;;;;27.92;10.70;;;8.90;99.90;;;8.28;100.00;97907.63;4970105;28;20069;-71
2022/11/10 02:56:24;;;;;;;23.83;11.32;;;8.90;99.90;;;8.19;100.00;97918.25;4961601;28;20061;-71
2022/11/10 02:58:50;;;;;;;21.38;10.82;;;8.80;99.90;;;8.05;100.00;97920.31;4965638;28;20475;-71
2022/11/10 03:01:17;;;;;;;24.00;11.63;;;8.80;99.90;;;8.05;100.00;97923.78;4965180;28;20043;-72
2022/11/10 03:03:44;;;;;;;22.83;10.00;;;8.80;99.90;;;8.05;100.00;97922.91;4964121;28;20046;-70
2022/11/10 03:06:11;;;;;;;22.13;10.10;;;8.80;99.90;;;8.18;100.00;97922.53;4967079;28;20072;-71
2022/11/10 03:08:38;;;;;;;20.65;9.73;;;8.80;99.90;;;8.24;100.00;97924.13;4965449;28;20043;-71
2022/11/10 03:11:05;;;;;;;23.80;10.65;;;8.80;99.90;;;8.16;100.00;97923.47;4965729;28;20058;-71
2022/11/10 03:13:32;;;;;;;20.83;9.90;;;8.80;99.90;;;8.20;100.00;97919.09;4966068;28;20600;-71
2022/11/10 03:16:19;;;;;;;23.52;12.25;;;8.80;99.90;;;8.19;100.00;97920.81;4964592;28;20066;-71
2022/11/10 03:18:46;;;;;;;25.83;10.40;;;8.90;99.90;;;8.20;100.00;97919.09;4964716;28;20432;-71
2022/11/10 03:21:13;;;;;;;24.95;10.57;;;8.90;99.90;;;8.13;100.00;97928.75;4963041;28;20157;-71
2022/11/10 03:23:40;;;;;;;21.13;10.43;;;8.90;99.90;;;8.13;100.00;97923.56;4966900;28;20046;-72
2022/11/10 03:26:06;;;;;;;30.67;10.88;;;8.90;99.90;;;8.14;100.00;97915.78;4964629;28;20059;-70
2022/11/10 03:28:34;;;;;;;22.60;12.02;;;8.90;99.90;;;8.11;100.00;97928.78;4965483;28;20042;-71
2022/11/10 03:31:01;;;;;;;28.58;11.65;;;8.90;99.90;;;8.16;100.00;97931.22;4964342;28;22184;-70
2022/11/10 03:33:27;;;;;;;26.70;12.10;;;8.90;99.90;;;8.20;100.00;97932.00;4965967;28;20473;-71
2022/11/10 03:35:54;;;;;;;18.35;10.50;;;8.90;99.90;;;8.12;100.00;97935.66;4964899;28;20673;-71
2022/11/10 03:38:21;;;;;;;27.25;12.48;;;8.80;99.90;;;8.05;100.00;97939.31;4964431;28;20062;-70
2022/11/10 03:40:50;;;;;;;25.45;10.90;;;8.80;99.90;;;8.10;100.00;97945.19;4967737;28;20708;-71
2022/11/10 03:43:36;;;;;;;19.88;10.40;;;8.80;99.90;;;8.03;100.00;97943.66;4966529;28;20751;-71
2022/11/10 03:46:03;;;;;;;22.33;11.48;;;8.70;99.90;;;8.10;100.00;97952.94;4967097;28;20062;-71
2022/11/10 03:48:31;;;;;;;27.50;12.27;;;8.80;99.90;;;7.99;100.00;97965.31;4963061;28;20057;-71
2022/11/10 03:50:58;;;;;;;22.77;12.55;;;8.70;99.90;;;8.01;100.00;97970.44;4955454;28;20393;-71
2022/11/10 03:53:25;;;;;;;18.23;10.98;;;8.70;99.90;;;8.05;100.00;97969.44;4956117;28;20062;-72
2022/11/10 03:55:51;;;;;;;28.67;14.05;;;8.70;99.90;;;7.92;100.00;97966.34;4964064;28;20046;-70
2022/11/10 03:58:18;;;;;;;33.60;12.57;;;8.70;99.90;;;7.93;100.00;97981.81;4962864;28;20363;-71
2022/11/10 04:00:45;;;;;;;24.33;12.23;;;8.80;99.90;;;7.91;100.00;97973.28;4965401;28;20050;-72
2022/11/10 04:03:12;;;;;;;22.63;11.95;;;8.80;99.90;;;7.95;100.00;97980.03;4966792;28;20087;-71
2022/11/10 04:11:09;;;;;;;23.90;11.38;;;8.70;99.90;;;8.00;100.00;97992.84;4964157;28;20085;-71
2022/11/10 04:16:21;;;;;;;29.30;12.05;;;8.80;99.90;;;8.02;100.00;97996.22;4964742;28;20508;-71
2022/11/10 04:18:48;;;;;;;27.73;12.68;;;8.80;99.90;;;7.91;100.00;98001.69;4962479;28;20070;-71
2022/11/10 04:21:15;;;;;;;28.35;13.15;;;8.80;99.90;;;7.98;100.00;98004.94;4963573;28;20058;-71
2022/11/10 04:23:42;;;;;;;18.50;10.38;;;8.80;99.90;;;8.04;100.00;97994.47;4977657;28;20085;-71
2022/11/10 04:26:27;;;;;;;19.75;10.63;;;8.80;99.90;;;8.04;100.00;97999.63;4963002;28;20547;-73
2022/11/10 04:29:08;;;;;;;19.20;10.15;;;8.80;99.90;;;8.11;100.00;98000.31;4964879;28;20456;-70
2022/11/10 04:31:38;;;;;;;21.90;10.80;;;8.80;99.90;;;8.04;100.00;98001.38;4947790;28;20046;-70
2022/11/10 04:34:13;;;;;;;21.02;10.35;;;8.90;99.90;;;8.15;100.00;98005.38;4962502;28;20109;-69
2022/11/10 04:36:42;;;;;;;19.38;9.00;;;9.00;99.90;;;8.15;100.00;98007.13;4963371;28;20050;-70
2022/11/10 04:39:09;;;;;;;19.45;9.70;;;8.90;99.90;;;8.05;100.00;98006.53;4964777;28;20059;-71
2022/11/10 04:41:36;;;;;;;20.55;8.43;;;8.90;99.90;;;8.12;100.00;98004.63;4966134;28;20073;-70
2022/11/10 04:44:04;;;;;;;23.98;8.75;;;8.90;99.90;;;8.16;100.00;98014.84;4964015;28;20059;-71
2022/11/10 04:46:32;;;;;;;21.27;8.65;;;8.90;99.90;;;8.05;100.00;98016.00;4963603;28;20073;-71
2022/11/10 04:49:00;;;;;;;21.20;10.20;;;8.90;99.90;;;8.12;100.00;98026.16;4964004;28;20161;-71
2022/11/10 04:51:31;;;;;;;19.13;10.00;;;8.80;99.90;;;8.01;100.00;98054.00;4977855;28;20054;-73
2022/11/10 04:53:58;;;;;;;20.27;8.30;;;8.90;99.90;;;7.99;100.00;98044.59;4962903;28;20047;-71
2022/11/10 04:56:26;;;;;;;22.30;9.23;;;9.00;99.90;;;8.02;100.00;98050.53;4965797;28;20218;-73
2022/11/10 04:58:54;;;;;;;16.90;8.13;;;9.10;99.90;;;8.08;100.00;98057.28;4963676;28;20551;-72
2022/11/10 05:01:25;;;;;;;22.42;8.75;;;9.00;99.90;;;8.09;100.00;98054.66;4961586;28;20531;-72
2022/11/10 05:03:53;;;;;;;16.58;9.15;;;9.10;99.90;;;8.01;100.00;98048.00;4979796;28;20053;-73
2022/11/10 05:06:21;;;;;;;23.70;8.20;;;9.00;99.90;;;8.17;100.00;98029.47;4976507;28;20042;-72
2022/11/10 05:08:48;;;;;;;15.80;7.90;;;9.00;99.90;;;8.16;100.00;98040.72;4978871;28;20528;-73
2022/11/10 05:11:16;;;;;;;17.25;7.60;;;9.00;99.90;;;8.23;100.00;98048.28;4963122;28;20055;-73
2022/11/10 05:13:44;;;;;;;20.58;7.90;;;9.00;99.90;;;8.13;100.00;98050.25;4964926;28;20051;-72
2022/11/10 05:16:11;;;;;;;16.35;7.47;;;9.10;99.90;;;8.23;100.00;98062.06;4960794;28;20047;-73
2022/11/10 05:18:40;;;;;;;22.08;7.88;;;9.10;99.90;;;8.13;100.00;98073.53;4963160;28;20066;-73
2022/11/10 05:21:07;;;;;;;20.30;8.98;;;9.10;99.90;;;8.02;100.00;98071.22;4963049;28;20066;-73
2022/11/10 05:23:36;;;;;;;16.85;8.90;;;9.20;99.90;;;8.07;100.00;98069.34;4977239;28;20050;-72
2022/11/10 05:26:12;;;;;;;22.40;9.77;;;9.10;99.90;;;7.96;100.00;98063.63;4963243;28;20057;-73
2022/11/10 05:28:41;;;;;;;27.33;10.05;;;9.10;99.90;;;8.00;100.00;98072.13;4974663;28;20493;-74
2022/11/10 05:31:09;;;;;;;27.88;10.68;;;9.10;99.90;;;8.11;100.00;98075.31;4977459;28;20058;-72
2022/11/10 05:33:37;;;;;;;25.20;11.07;;;9.00;99.90;;;8.09;100.00;98082.25;4962411;28;20528;-72
2022/11/10 05:36:06;;;;;;;24.63;11.73;;;9.00;99.90;;;7.95;100.00;98083.44;4960810;28;20534;-73
2022/11/10 05:38:33;;;;;;;29.92;12.50;;;9.00;99.90;;;7.89;100.00;98088.75;4962594;28;20129;-73
2022/11/10 05:41:07;;;;;;;23.25;12.07;;;9.00;99.90;;;7.90;100.00;98084.44;4962173;28;20129;-73
2022/11/10 05:43:34;;;;;;;26.33;12.07;;;9.00;99.90;;;7.95;100.00;98096.34;4979735;28;20492;-72
2022/11/10 05:46:01;;;;;;;25.23;11.63;;;9.00;99.90;;;7.92;100.00;98100.75;4958381;28;20512;-72
2022/11/10 05:48:28;;;;;;;24.58;11.10;;;9.00;99.90;;;7.97;100.00;98099.75;4972362;28;20074;-72
2022/11/10 05:50:55;;;;;;;29.92;10.80;;;9.00;99.90;;;8.10;100.00;98096.91;4968503;28;20051;-73
2022/11/10 05:53:21;;;;;;;22.83;12.15;;;9.00;99.90;;;7.95;100.00;98106.69;4964254;28;20609;-72
2022/11/10 05:55:49;;;;;;;29.08;12.45;;;8.90;99.90;;;8.02;100.00;98120.31;4960439;28;20062;-73
2022/11/10 05:58:16;;;;;;;24.70;11.00;;;8.90;99.90;;;7.98;100.00;98121.28;4962378;28;20061;-72
2022/11/10 06:00:43;;;;;;;22.90;12.57;;;8.80;99.90;;;7.85;100.00;98123.31;4969108;28;20050;-72
2022/11/10 06:03:16;;;;;;;29.48;11.52;;;8.80;99.90;;;7.86;100.00;98131.91;4958051;28;20473;-70
2022/11/10 06:05:43;;;;;;;26.48;11.98;;;8.80;99.90;;;7.78;100.00;98137.25;4961821;28;20042;-73
2022/11/10 06:08:10;;;;;;;28.00;11.10;;;8.70;99.90;;;7.74;100.00;98140.78;4962437;28;20054;-71
2022/11/10 06:10:39;;;;;;;27.98;10.10;;;8.70;99.90;;;7.80;100.00;98140.66;4963972;28;20342;-73
2022/11/10 06:13:06;;;;;;;28.90;11.27;;;8.70;99.90;;;7.78;100.00;98157.94;4963712;28;20054;-73
2022/11/10 06:15:33;;;;;;;23.77;10.95;;;8.60;99.90;;;7.82;100.00;98153.53;4961389;28;20058;-73
2022/11/10 06:18:00;;;;;;;25.30;11.02;;;8.60;99.90;;;7.81;100.00;98154.44;4961221;28;20055;-72
2022/11/10 06:20:27;;;;;;;23.48;11.13;;;8.70;99.90;;;7.80;100.00;98161.34;4962733;28;20131;-72
2022/11/10 06:22:59;;;;;;;31.48;13.57;;;8.70;99.90;;;7.69;100.00;98165.91;4962141;28;20051;-72
2022/11/10 06:25:31;;;;;;;27.02;13.27;;;8.70;99.90;;;7.68;100.00;98171.94;4963883;28;20552;-73
2022/11/10 06:27:59;;;;;;;27.45;13.18;;;8.60;99.90;;;7.68;100.00;98180.53;4963329;28;20091;-73
2022/11/10 06:30:27;;;;;;;35.38;13.38;;;8.70;99.90;;;7.73;100.00;98181.31;4965162;28;20053;-73
2022/11/10 06:32:54;;;;;;;33.30;11.35;;;8.60;99.90;;;7.76;100.00;98182.97;4978434;28;20055;-73
2022/11/10 06:35:22;;;;;;;25.73;10.75;;;8.70;99.90;;;7.83;100.00;98196.59;4963000;28;20703;-71
2022/11/10 06:38:00;;;;;;;29.65;11.95;;;8.70;99.90;;;7.84;100.00;98208.63;4960923;28;20085;-71
2022/11/10 06:40:29;;;;;;;27.73;11.23;;;8.80;99.90;;;7.74;100.00;98210.56;4963495;28;20082;-72
2022/11/10 06:42:57;;;;;;;25.90;11.32;;;8.80;99.90;;;7.84;100.00;98218.97;4979183;28;20043;-72
2022/11/10 06:45:27;;;;;;;20.98;10.45;;;8.90;99.90;;;7.86;100.00;98227.53;4960581;28;20493;-71
2022/11/10 06:48:04;;;;;;;20.95;9.63;;;8.90;99.90;;;7.85;100.00;98224.13;4963051;28;20050;-71
2022/11/10 06:50:31;;;;;;;21.38;9.68;;;8.80;99.90;;;7.97;100.00;98223.84;4961237;28;20051;-72
2022/11/10 06:52:59;;;;;;;23.25;10.43;;;8.80;99.90;;;8.01;100.00;98231.53;4964671;28;20846;-71
2022/11/10 06:55:27;;;;;;;23.35;10.20;;;8.90;99.90;;;7.95;100.00;98223.03;4977935;28;20054;-71
2022/11/10 06:57:54;;;;;;;29.85;12.43;;;8.90;99.90;;;7.89;100.00;98230.06;4963801;28;20500;-72
2022/11/10 07:00:21;;;;;;;30.55;11.05;;;8.90;99.90;;;7.86;100.00;98241.31;4963740;28;20154;-70
2022/11/10 07:03:01;;;;;;;25.08;10.80;;;8.90;99.90;;;7.88;100.00;98241.28;4962927;28;20047;-72
2022/11/10 07:05:29;;;;;;;29.85;11.93;;;9.00;99.90;;;8.00;100.00;98242.75;4976446;28;20097;-71
2022/11/10 07:08:02;;;;;;;27.05;12.30;;;9.00;99.90;;;7.91;100.00;98243.78;4960558;28;20130;-71
2022/11/10 07:10:29;;;;;;;25.05;11.52;;;9.10;99.90;;;7.99;100.00;98254.84;4964401;28;20059;-71
2022/11/10 07:12:58;;;;;;;39.83;16.17;;;9.10;99.90;;;7.94;100.00;98251.50;4963726;28;20065;-71
2022/11/10 07:15:25;;;;;;;27.70;11.88;;;9.10;99.90;;;8.10;100.00;98244.28;4962625;28;20053;-71
2022/11/10 07:17:53;;;;;;;27.77;12.27;;;9.10;99.90;;;8.11;100.00;98251.13;4980900;28;20043;-72
2022/11/10 07:20:20;;;;;;;26.05;10.40;;;9.10;99.90;;;8.16;100.00;98254.47;4967423;28;20047;-71
2022/11/10 07:22:47;;;;;;;21.35;9.70;;;9.10;99.90;;;8.17;100.00;98261.34;4965523;28;20062;-71
2022/11/10 07:25:14;;;;;;;21.95;9.55;;;9.10;99.90;;;8.20;100.00;98268.19;4967551;28;20516;-71
2022/11/10 07:27:41;;;;;;;27.65;10.25;;;9.10;99.90;;;8.08;100.00;98275.31;4966805;28;20062;-71
2022/11/10 07:30:08;;;;;;;19.92;8.00;;;9.10;99.90;;;8.20;100.00;98275.94;4967241;28;20059;-71
2022/11/10 07:32:35;;;;;;;24.15;10.38;;;9.20;99.90;;;8.24;100.00;98268.09;4966985;28;20051;-71
2022/11/10 07:35:02;;;;;;;21.67;9.82;;;9.20;99.90;;;8.16;100.00;98275.16;4964818;28;20429;-71
2022/11/10 07:37:29;;;;;;;30.38;10.52;;;9.20;99.90;;;8.15;100.00;98282.06;4964839;28;20428;-72
2022/11/10 07:39:56;;;;;;;29.40;11.13;;;9.20;99.90;;;8.16;100.00;98277.72;4965357;28;20497;-71
2022/11/10 07:42:23;;;;;;;25.85;9.48;;;9.10;99.90;;;8.23;100.00;98281.03;4969232;28;20149;-72
2022/11/10 07:44:50;;;;;;;19.77;8.25;;;9.10;99.90;;;8.29;100.00;98286.09;4968708;28;20485;-71
2022/11/10 07:47:16;;;;;;;24.23;7.90;;;9.20;99.90;;;8.04;100.00;98296.09;4967882;28;20070;-72
2022/11/10 07:49:43;;;;;;;18.20;9.15;;;9.20;99.90;;;8.07;100.00;98302.03;4968932;28;20061;-71
2022/11/10 07:52:10;;;;;;;30.00;9.45;;;9.30;99.90;;;8.09;100.00;98300.28;4967239;28;20053;-70
2022/11/10 07:54:37;;;;;;;30.75;9.77;;;9.30;99.90;;;8.15;100.00;98294.16;4968230;28;20066;-72
2022/11/10 07:57:04;;;;;;;25.77;7.90;;;9.30;99.90;;;8.23;100.00;98300.00;4970625;28;20532;-71
2022/11/10 07:59:31;;;;;;;21.80;7.82;;;9.30;99.90;;;8.24;100.00;98304.28;4968189;28;20050;-71
2022/11/10 08:01:57;;;;;;;20.75;8.88;;;9.30;99.90;;;8.34;100.00;98304.94;4968928;28;20234;-71
2022/11/10 08:04:24;;;;;;;20.65;8.60;;;9.30;99.90;;;8.41;100.00;98314.28;4968753;28;20062;-71
2022/11/10 08:06:53;;;;;;;30.20;12.25;;;9.40;99.90;;;8.14;100.00;98333.81;4966964;28;20496;-71
2022/11/10 08:09:20;;;;;;;24.88;11.23;;;9.40;99.90;;;8.04;100.00;98327.97;4982372;28;20059;-72
2022/11/10 08:11:47;;;;;;;25.98;9.02;;;9.40;99.90;;;8.24;100.00;98340.50;4968713;28;20058;-71
2022/11/10 08:14:13;;;;;;;19.08;9.60;;;9.20;99.90;;;8.04;100.00;98342.66;4967233;28;20050;-72
2022/11/10 08:16:40;;;;;;;27.75;11.35;;;9.30;99.90;;;7.94;100.00;98345.41;4968619;28;20576;-71
2022/11/10 08:19:07;;;;;;;27.58;12.05;;;9.30;99.90;;;8.07;100.00;98343.41;4983219;28;20481;-71
2022/11/10 08:21:34;;;;;;;31.05;12.48;;;9.30;99.90;;;8.08;100.00;98354.63;4968099;28;20069;-70
2022/11/10 08:24:01;;;;;;;19.35;7.60;;;9.40;99.90;;;8.26;100.00;98356.84;4980542;28;20054;-71
2022/11/10 08:26:28;;;;;;;15.70;7.25;;;9.40;99.90;;;8.31;100.00;98372.25;4968334;28;20050;-71
2022/11/10 08:28:55;;;;;;;19.13;6.88;;;9.40;99.90;;;8.18;100.00;98364.75;4968459;28;20068;-70
2022/11/10 08:31:22;;;;;;;16.77;6.00;;;9.60;99.90;;;8.36;100.00;98368.69;4969431;28;20153;-71
2022/11/10 08:33:48;;;;;;;20.48;7.28;;;9.70;99.90;;;8.49;100.00;98364.13;4965935;28;20365;-71
2022/11/10 08:36:16;;;;;;;17.08;6.55;;;9.70;99.90;;;8.68;100.00;98372.34;4964668;28;20062;-71
2022/11/10 08:38:42;;;;;;;18.27;6.55;;;9.70;99.90;;;8.38;100.00;98382.44;4973290;28;20138;-71
2022/11/10 08:41:09;;;;;;;11.23;6.07;;;9.70;99.90;;;8.21;100.00;98404.34;4963048;28;20460;-71
2022/11/10 08:43:36;;;;;;;22.83;7.88;;;9.60;99.90;;;8.21;100.00;98399.19;4966808;28;20046;-72
2022/11/10 08:46:03;;;;;;;18.67;8.13;;;9.60;99.90;;;8.27;100.00;98401.66;4965600;28;20436;-70
2022/11/10 08:48:30;;;;;;;14.88;6.57;;;9.60;99.90;;;8.54;100.00;98408.03;4960145;28;20054;-71
2022/11/10 08:50:59;;;;;;;12.05;7.25;;;9.70;99.90;;;8.81;100.00;98405.75;4948669;28;20066;-71
2022/11/10 08:53:26;;;;;;;16.02;6.38;;;9.90;99.90;;;8.95;100.00;98401.09;4960897;28;20068;-71
2022/11/10 08:55:58;;;;;;;16.88;6.57;;;10.10;99.90;;;9.09;100.00;98405.94;4961919;28;20523;-70
2022/11/10 08:58:25;;;;;;;15.95;6.05;;;10.20;99.90;;;8.70;100.00;98427.53;4976513;28;20058;-72
2022/11/10 09:00:53;;;;;;;14.00;6.47;;;10.10;99.90;;;8.66;100.00;98438.81;4961590;28;20398;-71
2022/11/10 09:03:24;;;;;;;14.77;6.78;;;10.00;99.90;;;8.88;100.00;98441.81;4962932;28;20075;-70
2022/11/10 09:05:52;;;;;;;22.63;6.88;;;10.00;99.90;;;9.06;100.00;98444.88;4964011;28;20062;-70
2022/11/10 09:08:24;;;;;;;17.52;6.75;;;10.00;99.90;;;8.85;100.00;98460.00;4963181;28;20850;-70
2022/11/10 09:10:51;;;;;;;17.20;7.20;;;10.20;99.90;;;8.73;100.00;98458.50;4945289;28;20069;-71
2022/11/10 09:13:22;;;;;;;16.50;6.38;;;10.20;99.90;;;8.77;100.00;98464.47;4962024;28;20055;-70
2022/11/10 09:16:02;;;;;;;19.23;7.03;;;10.00;99.90;;;8.64;100.00;98470.78;4964136;28;20552;-71
2022/11/10 09:18:30;;;;;;;15.98;5.68;;;10.00;99.90;;;8.53;100.00;98490.00;4959977;28;20590;-71
2022/11/10 09:20:57;;;;;;;15.65;6.43;;;10.10;99.90;;;8.65;100.00;98490.63;4962571;28;20069;-71
2022/11/10 09:23:25;;;;;;;18.48;6.63;;;10.20;99.90;;;8.80;100.00;98495.47;4961716;28;20047;-70
2022/11/10 09:25:54;;;;;;;20.10;6.50;;;10.30;99.90;;;8.73;100.00;98502.50;4965002;28;20078;-71
2022/11/10 09:28:22;;;;;;;15.25;7.47;;;10.30;99.90;;;8.93;100.00;98501.25;4963061;28;20051;-71
2022/11/10 09:30:51;;;;;;;15.68;6.85;;;10.30;99.90;;;8.95;100.00;98507.25;4964496;28;20085;-71
2022/11/10 09:33:18;;;;;;;12.13;6.40;;;10.30;99.90;;;9.34;100.00;98505.53;4962726;28;20550;-71
2022/11/10 09:35:45;;;;;;;15.40;6.57;;;10.20;99.90;;;9.06;100.00;98494.09;4962822;28;20129;-71
2022/11/10 09:38:12;;;;;;;14.15;6.85;;;10.20;99.90;;;9.19;100.00;98504.16;4963720;28;20109;-70
2022/11/10 09:40:54;;;;;;;14.30;6.25;;;10.20;99.90;;;9.25;100.00;98504.88;4962610;28;20046;-70
2022/11/10 09:44:20;;;;;;;13.93;6.55;;;10.20;99.90;;;9.29;100.00;98504.78;4964440;28;20484;-70
2022/11/10 09:47:17;;;;;;;14.90;6.38;;;10.40;99.90;;;9.52;100.00;98496.47;4960391;28;20046;-71
2022/11/10 09:50:06;;;;;;;11.27;5.35;;;10.70;99.90;;;9.59;100.00;98499.78;4974009;28;20138;-70
2022/11/10 09:52:36;;;;;;;11.95;5.57;;;10.80;99.90;;;9.52;100.00;98509.44;4963292;28;20761;-71
2022/11/10 09:55:21;;;;;;;16.00;6.78;;;10.80;99.90;;;9.37;100.00;98518.44;4957568;28;20066;-70
2022/11/10 09:57:51;;;;;;;13.52;6.20;;;10.80;99.90;;;8.97;100.00;98534.81;4977392;28;20073;-71
2022/11/10 10:00:18;;;;;;;10.82;6.07;;;10.70;99.90;;;9.11;100.00;98526.75;4958954;28;20046;-71
2022/11/10 10:02:54;;;;;;;14.82;5.35;;;10.70;99.90;;;8.92;100.00;98546.16;4960043;28;20062;-71
2022/11/10 10:05:45;;;;;;;19.55;6.13;;;10.80;99.90;;;9.06;100.00;98549.31;4976506;28;20051;-70
2022/11/10 10:08:35;;;;;;;12.80;5.28;;;10.80;99.90;;;9.02;100.00;98554.59;4960361;28;20607;-71
2022/11/10 10:11:31;;;;;;;12.57;5.55;;;10.80;99.90;;;9.40;100.00;98551.19;4975555;28;20448;-71
2022/11/10 10:14:43;;;;;;;16.38;5.68;;;10.80;99.90;;;9.35;100.00;98559.06;4961257;28;20047;-70
2022/11/10 10:17:31;;;;;;;13.88;5.43;;;10.90;99.90;;;9.24;100.00;98555.84;4961045;28;20157;-70
2022/11/10 10:20:26;;;;;;;;;;;11.00;99.90;;;9.55;100.00;98557.75;4960991;28;20134;-70
2022/11/10 10:23:31;;;;;;;12.43;4.68;;;11.10;99.90;;;10.21;100.00;98548.38;4967788;28;20050;-69
2022/11/10 10:26:27;;;;;;;9.40;3.95;;;11.20;99.90;;;10.49;100.00;98560.66;4963372;28;20054;-71
2022/11/10 10:28:57;;;;;;;11.73;4.15;;;11.50;99.90;;;10.74;100.00;98555.66;4960314;28;20072;-71
2022/11/10 10:31:33;;;;;;;12.43;4.78;;;11.80;99.90;;;10.47;100.00;98573.72;4961323;28;20050;-71
2022/11/10 10:34:01;;;;;;;11.88;5.65;;;;;;;10.10;100.00;98573.75;4957120;28;20055;-71
2022/11/10 10:36:30;;;;;;;12.10;4.47;;;12.10;99.90;;;10.60;100.00;98553.44;4961734;28;20055;-70
2022/11/10 10:39:04;;;;;;;11.02;4.85;;;12.00;99.90;;;10.76;100.00;98566.88;4960304;28;20166;-71
2022/11/10 10:41:33;;;;;;;10.60;4.47;;;12.10;99.90;;;10.28;100.00;98575.88;4973952;28;20055;-71